sensor_id;sensor_type;location;lat;lon;timestamp;temperature;humidity
17495;DHT22;8864;51.970;4.614;2023-04-01T00:01:01;17.40;77.60
17495;DHT22;8864;51.970;4.614;2023-04-01T00:03:29;17.40;77.70
17495;DHT22;8864;51.970;4.614;2023-04-01T00:05:57;17.30;77.60
17495;DHT22;8864;51.970;4.614;2023-04-01T00:08:26;17.40;77.70
17495;DHT22;8864;51.970;4.614;2023-04-01T00:10:53;17.40;77.60
17495;DHT22;8864;51.970;4.614;2023-04-01T00:13:20;17.30;77.70
17495;DHT22;8864;51.970;4.614;2023-04-01T00:15:49;17.40;77.70
17495;DHT22;8864;51.970;4.614;2023-04-01T00:18:16;17.30;77.70
17495;DHT22;8864;51.970;4.614;2023-04-01T00:20:44;17.30;77.70
17495;DHT22;8864;51.970;4.614;2023-04-01T00:23:11;17.30;77.80
17495;DHT22;8864;51.970;4.614;2023-04-01T00:25:38;17.30;77.80
17495;DHT22;8864;51.970;4.614;2023-04-01T00:28:05;17.30;77.80
17495;DHT22;8864;51.970;4.614;2023-04-01T00:30:32;17.30;77.90
17495;DHT22;8864;51.970;4.614;2023-04-01T00:33:00;17.30;77.90
17495;DHT22;8864;51.970;4.614;2023-04-01T00:35:27;17.30;77.90
17495;DHT22;8864;51.970;4.614;2023-04-01T00:37:55;17.30;77.90
17495;DHT22;8864;51.970;4.614;2023-04-01T00:40:27;17.30;77.90
17495;DHT22;8864;51.970;4.614;2023-04-01T00:42:55;17.30;77.90
17495;DHT22;8864;51.970;4.614;2023-04-01T00:45:29;17.30;77.90
17495;DHT22;8864;51.970;4.614;2023-04-01T00:48:01;17.20;77.90
17495;DHT22;8864;51.970;4.614;2023-04-01T00:50:29;17.20;77.90
17495;DHT22;8864;51.970;4.614;2023-04-01T00:52:58;17.30;78.00
17495;DHT22;8864;51.970;4.614;2023-04-01T00:55:28;17.30;78.00
17495;DHT22;8864;51.970;4.614;2023-04-01T00:57:58;17.30;78.00
17495;DHT22;8864;51.970;4.614;2023-04-01T01:00:26;17.20;78.00
17495;DHT22;8864;51.970;4.614;2023-04-01T01:02:53;17.20;78.00
17495;DHT22;8864;51.970;4.614;2023-04-01T01:05:28;17.20;78.10
17495;DHT22;8864;51.970;4.614;2023-04-01T01:08:03;17.20;78.00
17495;DHT22;8864;51.970;4.614;2023-04-01T01:10:34;17.20;78.00
17495;DHT22;8864;51.970;4.614;2023-04-01T01:13:08;17.20;78.00
17495;DHT22;8864;51.970;4.614;2023-04-01T01:15:41;17.20;78.10
17495;DHT22;8864;51.970;4.614;2023-04-01T01:18:18;17.20;78.10
17495;DHT22;8864;51.970;4.614;2023-04-01T01:24:30;17.20;78.20
17495;DHT22;8864;51.970;4.614;2023-04-01T01:27:03;17.20;78.10
17495;DHT22;8864;51.970;4.614;2023-04-01T01:32:54;17.20;78.30
17495;DHT22;8864;51.970;4.614;2023-04-01T01:35:27;17.10;78.30
17495;DHT22;8864;51.970;4.614;2023-04-01T01:37:58;17.10;78.30
17495;DHT22;8864;51.970;4.614;2023-04-01T01:40:27;17.10;78.30
17495;DHT22;8864;51.970;4.614;2023-04-01T01:42:59;17.10;78.30
17495;DHT22;8864;51.970;4.614;2023-04-01T01:45:27;17.10;78.30
17495;DHT22;8864;51.970;4.614;2023-04-01T01:47:56;17.10;78.30
17495;DHT22;8864;51.970;4.614;2023-04-01T01:50:26;17.10;78.30
17495;DHT22;8864;51.970;4.614;2023-04-01T01:53:04;17.10;78.40
17495;DHT22;8864;51.970;4.614;2023-04-01T01:55:43;17.10;78.40
17495;DHT22;8864;51.970;4.614;2023-04-01T01:58:13;17.00;78.40
17495;DHT22;8864;51.970;4.614;2023-04-01T02:00:43;17.10;78.50
17495;DHT22;8864;51.970;4.614;2023-04-01T02:03:12;17.10;78.40
17495;DHT22;8864;51.970;4.614;2023-04-01T02:05:41;17.10;78.40
17495;DHT22;8864;51.970;4.614;2023-04-01T02:08:13;17.10;78.50
17495;DHT22;8864;51.970;4.614;2023-04-01T02:10:43;17.10;78.80
17495;DHT22;8864;51.970;4.614;2023-04-01T02:13:16;17.00;79.00
17495;DHT22;8864;51.970;4.614;2023-04-01T02:15:48;17.00;78.90
17495;DHT22;8864;51.970;4.614;2023-04-01T02:18:18;17.10;78.90
17495;DHT22;8864;51.970;4.614;2023-04-01T02:20:47;17.00;78.70
17495;DHT22;8864;51.970;4.614;2023-04-01T02:23:16;17.00;78.80
17495;DHT22;8864;51.970;4.614;2023-04-01T02:25:44;17.00;78.80
17495;DHT22;8864;51.970;4.614;2023-04-01T02:28:13;17.00;78.70
17495;DHT22;8864;51.970;4.614;2023-04-01T02:30:45;17.00;78.80
17495;DHT22;8864;51.970;4.614;2023-04-01T02:33:14;17.00;78.70
17495;DHT22;8864;51.970;4.614;2023-04-01T02:35:41;17.00;78.70
17495;DHT22;8864;51.970;4.614;2023-04-01T02:38:10;17.00;78.80
17495;DHT22;8864;51.970;4.614;2023-04-01T02:40:45;17.00;78.80
17495;DHT22;8864;51.970;4.614;2023-04-01T02:43:13;17.00;78.80
17495;DHT22;8864;51.970;4.614;2023-04-01T02:45:40;17.00;78.80
17495;DHT22;8864;51.970;4.614;2023-04-01T02:48:07;16.90;78.70
17495;DHT22;8864;51.970;4.614;2023-04-01T02:50:34;16.90;78.70
17495;DHT22;8864;51.970;4.614;2023-04-01T02:53:01;16.90;78.80
17495;DHT22;8864;51.970;4.614;2023-04-01T02:55:33;16.90;78.80
17495;DHT22;8864;51.970;4.614;2023-04-01T02:58:00;16.90;78.80
17495;DHT22;8864;51.970;4.614;2023-04-01T03:00:27;16.90;78.80
17495;DHT22;8864;51.970;4.614;2023-04-01T03:02:54;16.90;78.90
17495;DHT22;8864;51.970;4.614;2023-04-01T03:05:21;16.90;78.90
17495;DHT22;8864;51.970;4.614;2023-04-01T03:07:48;16.90;78.80
17495;DHT22;8864;51.970;4.614;2023-04-01T03:10:16;16.90;78.80
17495;DHT22;8864;51.970;4.614;2023-04-01T03:12:44;16.90;78.90
17495;DHT22;8864;51.970;4.614;2023-04-01T03:15:12;16.80;78.90
17495;DHT22;8864;51.970;4.614;2023-04-01T03:17:40;16.90;79.00
17495;DHT22;8864;51.970;4.614;2023-04-01T03:20:09;16.90;79.00
17495;DHT22;8864;51.970;4.614;2023-04-01T03:22:36;16.90;79.10
17495;DHT22;8864;51.970;4.614;2023-04-01T03:25:05;16.90;79.10
17495;DHT22;8864;51.970;4.614;2023-04-01T03:27:33;16.90;79.10
17495;DHT22;8864;51.970;4.614;2023-04-01T03:30:02;16.80;79.10
17495;DHT22;8864;51.970;4.614;2023-04-01T03:32:29;16.80;79.10
17495;DHT22;8864;51.970;4.614;2023-04-01T03:34:56;16.90;79.30
17495;DHT22;8864;51.970;4.614;2023-04-01T03:37:23;16.80;80.00
17495;DHT22;8864;51.970;4.614;2023-04-01T03:39:50;16.80;79.30
17495;DHT22;8864;51.970;4.614;2023-04-01T03:42:17;16.80;79.30
17495;DHT22;8864;51.970;4.614;2023-04-01T03:44:44;16.80;79.20
17495;DHT22;8864;51.970;4.614;2023-04-01T03:47:12;16.80;79.30
17495;DHT22;8864;51.970;4.614;2023-04-01T03:49:40;16.80;79.40
17495;DHT22;8864;51.970;4.614;2023-04-01T03:52:09;16.80;79.40
17495;DHT22;8864;51.970;4.614;2023-04-01T03:54:37;16.80;79.60
17495;DHT22;8864;51.970;4.614;2023-04-01T03:57:05;16.80;79.60
17495;DHT22;8864;51.970;4.614;2023-04-01T03:59:31;16.80;79.90
17495;DHT22;8864;51.970;4.614;2023-04-01T04:01:59;16.80;80.00
17495;DHT22;8864;51.970;4.614;2023-04-01T04:04:27;16.80;79.80
17495;DHT22;8864;51.970;4.614;2023-04-01T04:06:56;16.80;79.70
17495;DHT22;8864;51.970;4.614;2023-04-01T04:09:23;16.80;79.70
17495;DHT22;8864;51.970;4.614;2023-04-01T04:11:50;16.80;79.80
17495;DHT22;8864;51.970;4.614;2023-04-01T04:14:18;16.80;79.80
17495;DHT22;8864;51.970;4.614;2023-04-01T04:16:45;16.80;79.80
17495;DHT22;8864;51.970;4.614;2023-04-01T04:19:12;16.70;79.80
17495;DHT22;8864;51.970;4.614;2023-04-01T04:21:41;16.80;79.90
17495;DHT22;8864;51.970;4.614;2023-04-01T04:24:08;16.80;79.90
17495;DHT22;8864;51.970;4.614;2023-04-01T04:26:36;16.80;79.90
17495;DHT22;8864;51.970;4.614;2023-04-01T04:29:03;16.70;79.80
17495;DHT22;8864;51.970;4.614;2023-04-01T04:31:30;16.70;79.80
17495;DHT22;8864;51.970;4.614;2023-04-01T04:33:59;16.80;79.90
17495;DHT22;8864;51.970;4.614;2023-04-01T04:36:26;16.70;79.90
17495;DHT22;8864;51.970;4.614;2023-04-01T04:38:54;16.70;79.90
17495;DHT22;8864;51.970;4.614;2023-04-01T04:41:21;16.70;79.90
17495;DHT22;8864;51.970;4.614;2023-04-01T04:43:52;16.70;80.00
17495;DHT22;8864;51.970;4.614;2023-04-01T04:46:20;16.70;79.90
17495;DHT22;8864;51.970;4.614;2023-04-01T04:48:47;16.70;80.00
17495;DHT22;8864;51.970;4.614;2023-04-01T04:51:16;16.70;80.00
17495;DHT22;8864;51.970;4.614;2023-04-01T04:53:43;16.70;80.00
17495;DHT22;8864;51.970;4.614;2023-04-01T04:56:12;16.70;80.00
17495;DHT22;8864;51.970;4.614;2023-04-01T04:58:40;16.70;80.10
17495;DHT22;8864;51.970;4.614;2023-04-01T05:01:09;16.70;80.10
17495;DHT22;8864;51.970;4.614;2023-04-01T05:03:37;16.70;80.20
17495;DHT22;8864;51.970;4.614;2023-04-01T05:06:05;16.70;80.20
17495;DHT22;8864;51.970;4.614;2023-04-01T05:08:33;16.70;80.20
17495;DHT22;8864;51.970;4.614;2023-04-01T05:11:00;16.70;80.20
17495;DHT22;8864;51.970;4.614;2023-04-01T05:13:29;16.70;80.00
17495;DHT22;8864;51.970;4.614;2023-04-01T05:15:56;16.70;80.10
17495;DHT22;8864;51.970;4.614;2023-04-01T05:18:23;16.70;80.20
17495;DHT22;8864;51.970;4.614;2023-04-01T05:20:51;16.70;80.20
17495;DHT22;8864;51.970;4.614;2023-04-01T05:23:18;16.70;80.20
17495;DHT22;8864;51.970;4.614;2023-04-01T05:25:47;16.70;80.20
17495;DHT22;8864;51.970;4.614;2023-04-01T05:28:14;16.70;80.30
17495;DHT22;8864;51.970;4.614;2023-04-01T05:30:43;16.60;80.20
17495;DHT22;8864;51.970;4.614;2023-04-01T05:33:11;16.70;80.30
17495;DHT22;8864;51.970;4.614;2023-04-01T05:35:38;16.70;80.20
17495;DHT22;8864;51.970;4.614;2023-04-01T05:38:05;16.70;80.30
17495;DHT22;8864;51.970;4.614;2023-04-01T05:40:32;16.70;80.30
17495;DHT22;8864;51.970;4.614;2023-04-01T05:42:59;16.70;80.60
17495;DHT22;8864;51.970;4.614;2023-04-01T05:45:27;16.70;80.50
17495;DHT22;8864;51.970;4.614;2023-04-01T05:47:56;16.70;80.50
17495;DHT22;8864;51.970;4.614;2023-04-01T05:50:23;16.70;80.90
17495;DHT22;8864;51.970;4.614;2023-04-01T05:52:50;16.70;81.30
17495;DHT22;8864;51.970;4.614;2023-04-01T05:55:17;16.80;81.70
17495;DHT22;8864;51.970;4.614;2023-04-01T05:57:45;16.80;81.50
17495;DHT22;8864;51.970;4.614;2023-04-01T06:00:13;16.80;81.40
17495;DHT22;8864;51.970;4.614;2023-04-01T06:02:40;16.80;81.30
17495;DHT22;8864;51.970;4.614;2023-04-01T06:05:15;16.70;81.20
17495;DHT22;8864;51.970;4.614;2023-04-01T06:07:43;16.70;81.10
17495;DHT22;8864;51.970;4.614;2023-04-01T06:10:13;16.70;81.00
17495;DHT22;8864;51.970;4.614;2023-04-01T06:12:50;16.70;80.80
17495;DHT22;8864;51.970;4.614;2023-04-01T06:15:25;16.70;80.60
17495;DHT22;8864;51.970;4.614;2023-04-01T06:21:01;16.70;80.50
17495;DHT22;8864;51.970;4.614;2023-04-01T06:23:46;16.70;80.30
17495;DHT22;8864;51.970;4.614;2023-04-01T06:26:28;16.70;80.30
17495;DHT22;8864;51.970;4.614;2023-04-01T06:29:13;16.70;80.20
17495;DHT22;8864;51.970;4.614;2023-04-01T06:32:06;16.70;80.10
17495;DHT22;8864;51.970;4.614;2023-04-01T06:35:14;16.70;80.00
17495;DHT22;8864;51.970;4.614;2023-04-01T06:40:56;16.70;79.90
17495;DHT22;8864;51.970;4.614;2023-04-01T06:43:30;16.70;79.80
17495;DHT22;8864;51.970;4.614;2023-04-01T06:46:09;16.70;79.70
17495;DHT22;8864;51.970;4.614;2023-04-01T06:48:49;16.70;79.70
17495;DHT22;8864;51.970;4.614;2023-04-01T06:51:27;16.70;79.60
17495;DHT22;8864;51.970;4.614;2023-04-01T06:54:04;16.70;79.60
17495;DHT22;8864;51.970;4.614;2023-04-01T06:56:33;16.70;79.40
17495;DHT22;8864;51.970;4.614;2023-04-01T06:59:04;16.70;79.40
17495;DHT22;8864;51.970;4.614;2023-04-01T07:01:35;16.70;79.30
17495;DHT22;8864;51.970;4.614;2023-04-01T07:04:09;16.70;79.30
17495;DHT22;8864;51.970;4.614;2023-04-01T07:06:42;16.70;79.20
17495;DHT22;8864;51.970;4.614;2023-04-01T07:09:15;16.70;79.10
17495;DHT22;8864;51.970;4.614;2023-04-01T07:11:43;16.70;79.00
17495;DHT22;8864;51.970;4.614;2023-04-01T07:14:14;16.70;79.10
17495;DHT22;8864;51.970;4.614;2023-04-01T07:16:45;16.70;79.00
17495;DHT22;8864;51.970;4.614;2023-04-01T07:19:18;16.70;79.00
17495;DHT22;8864;51.970;4.614;2023-04-01T07:21:49;16.70;78.90
17495;DHT22;8864;51.970;4.614;2023-04-01T07:24:23;16.70;78.80
17495;DHT22;8864;51.970;4.614;2023-04-01T07:26:54;16.70;78.80
17495;DHT22;8864;51.970;4.614;2023-04-01T07:29:22;16.70;78.80
17495;DHT22;8864;51.970;4.614;2023-04-01T07:32:09;16.70;79.00
17495;DHT22;8864;51.970;4.614;2023-04-01T07:34:46;16.70;79.30
17495;DHT22;8864;51.970;4.614;2023-04-01T07:37:18;16.80;79.30
17495;DHT22;8864;51.970;4.614;2023-04-01T07:39:55;16.80;79.10
17495;DHT22;8864;51.970;4.614;2023-04-01T07:42:31;16.80;79.10
17495;DHT22;8864;51.970;4.614;2023-04-01T07:45:09;16.80;79.00
17495;DHT22;8864;51.970;4.614;2023-04-01T07:47:56;16.80;79.10
17495;DHT22;8864;51.970;4.614;2023-04-01T07:50:28;16.80;79.00
17495;DHT22;8864;51.970;4.614;2023-04-01T07:53:04;16.80;79.00
17495;DHT22;8864;51.970;4.614;2023-04-01T07:55:41;16.80;79.00
17495;DHT22;8864;51.970;4.614;2023-04-01T07:58:14;16.80;79.00
17495;DHT22;8864;51.970;4.614;2023-04-01T08:00:49;16.80;79.10
17495;DHT22;8864;51.970;4.614;2023-04-01T08:03:43;16.80;79.30
17495;DHT22;8864;51.970;4.614;2023-04-01T08:06:19;16.80;79.10
17495;DHT22;8864;51.970;4.614;2023-04-01T08:08:56;16.90;79.10
17495;DHT22;8864;51.970;4.614;2023-04-01T08:11:39;16.80;79.50
17495;DHT22;8864;51.970;4.614;2023-04-01T08:14:13;16.90;80.00
17495;DHT22;8864;51.970;4.614;2023-04-01T08:16:49;16.80;79.90
17495;DHT22;8864;51.970;4.614;2023-04-01T08:19:25;16.90;79.60
17495;DHT22;8864;51.970;4.614;2023-04-01T08:21:56;16.90;79.30
17495;DHT22;8864;51.970;4.614;2023-04-01T08:24:29;16.90;79.10
17495;DHT22;8864;51.970;4.614;2023-04-01T08:27:05;16.90;79.10
17495;DHT22;8864;51.970;4.614;2023-04-01T08:29:38;16.90;79.10
17495;DHT22;8864;51.970;4.614;2023-04-01T08:32:09;16.80;79.00
17495;DHT22;8864;51.970;4.614;2023-04-01T08:34:39;16.80;78.90
17495;DHT22;8864;51.970;4.614;2023-04-01T08:37:11;16.80;78.90
17495;DHT22;8864;51.970;4.614;2023-04-01T08:39:44;16.90;78.90
17495;DHT22;8864;51.970;4.614;2023-04-01T08:42:42;16.90;78.80
17495;DHT22;8864;51.970;4.614;2023-04-01T08:45:24;16.90;78.80
17495;DHT22;8864;51.970;4.614;2023-04-01T08:48:21;16.90;78.80
17495;DHT22;8864;51.970;4.614;2023-04-01T08:51:07;17.00;78.80
17495;DHT22;8864;51.970;4.614;2023-04-01T08:53:50;17.00;78.90
17495;DHT22;8864;51.970;4.614;2023-04-01T08:56:21;17.00;78.90
17495;DHT22;8864;51.970;4.614;2023-04-01T08:59:01;17.00;78.90
17495;DHT22;8864;51.970;4.614;2023-04-01T09:01:53;16.90;78.80
17495;DHT22;8864;51.970;4.614;2023-04-01T09:04:26;16.90;78.80
17495;DHT22;8864;51.970;4.614;2023-04-01T09:07:08;17.00;78.80
17495;DHT22;8864;51.970;4.614;2023-04-01T09:10:12;17.00;78.80
17495;DHT22;8864;51.970;4.614;2023-04-01T09:12:59;17.00;78.80
17495;DHT22;8864;51.970;4.614;2023-04-01T09:15:50;16.90;78.80
17495;DHT22;8864;51.970;4.614;2023-04-01T09:18:47;17.00;78.80
17495;DHT22;8864;51.970;4.614;2023-04-01T09:21:27;16.90;78.80
17495;DHT22;8864;51.970;4.614;2023-04-01T09:24:26;17.00;78.80
17495;DHT22;8864;51.970;4.614;2023-04-01T09:27:02;17.00;78.80
17495;DHT22;8864;51.970;4.614;2023-04-01T09:29:47;17.00;78.80
17495;DHT22;8864;51.970;4.614;2023-04-01T09:32:45;17.00;78.80
17495;DHT22;8864;51.970;4.614;2023-04-01T09:35:23;17.00;78.80
17495;DHT22;8864;51.970;4.614;2023-04-01T09:37:54;17.00;78.70
17495;DHT22;8864;51.970;4.614;2023-04-01T09:40:35;17.00;78.70
17495;DHT22;8864;51.970;4.614;2023-04-01T09:43:21;17.00;78.70
17495;DHT22;8864;51.970;4.614;2023-04-01T09:45:58;17.00;78.80
17495;DHT22;8864;51.970;4.614;2023-04-01T09:48:53;17.00;78.70
17495;DHT22;8864;51.970;4.614;2023-04-01T09:51:34;17.00;78.70
17495;DHT22;8864;51.970;4.614;2023-04-01T09:54:13;17.00;78.80
17495;DHT22;8864;51.970;4.614;2023-04-01T09:57:08;17.10;78.80
17495;DHT22;8864;51.970;4.614;2023-04-01T10:00:13;17.10;78.80
17495;DHT22;8864;51.970;4.614;2023-04-01T10:03:02;17.10;78.80
17495;DHT22;8864;51.970;4.614;2023-04-01T10:09:15;17.10;78.70
17495;DHT22;8864;51.970;4.614;2023-04-01T10:18:26;17.10;78.70
17495;DHT22;8864;51.970;4.614;2023-04-01T10:21:08;17.10;78.70
17495;DHT22;8864;51.970;4.614;2023-04-01T10:23:53;17.10;78.80
17495;DHT22;8864;51.970;4.614;2023-04-01T10:26:48;17.20;78.80
17495;DHT22;8864;51.970;4.614;2023-04-01T10:32:43;17.10;78.50
17495;DHT22;8864;51.970;4.614;2023-04-01T10:36:00;17.20;78.60
17495;DHT22;8864;51.970;4.614;2023-04-01T10:38:52;17.10;78.50
17495;DHT22;8864;51.970;4.614;2023-04-01T10:48:01;17.20;78.50
17495;DHT22;8864;51.970;4.614;2023-04-01T10:51:05;17.20;78.50
17495;DHT22;8864;51.970;4.614;2023-04-01T10:53:58;17.30;78.50
17495;DHT22;8864;51.970;4.614;2023-04-01T10:56:36;17.20;78.50
17495;DHT22;8864;51.970;4.614;2023-04-01T10:59:28;17.20;78.40
17495;DHT22;8864;51.970;4.614;2023-04-01T11:09:06;17.20;78.10
17495;DHT22;8864;51.970;4.614;2023-04-01T11:11:59;17.20;78.00
17495;DHT22;8864;51.970;4.614;2023-04-01T11:14:59;17.20;78.60
17495;DHT22;8864;51.970;4.614;2023-04-01T11:21:15;17.20;77.80
17495;DHT22;8864;51.970;4.614;2023-04-01T11:24:03;17.20;77.70
17495;DHT22;8864;51.970;4.614;2023-04-01T11:26:41;17.20;77.70
17495;DHT22;8864;51.970;4.614;2023-04-01T11:29:27;17.20;77.60
17495;DHT22;8864;51.970;4.614;2023-04-01T11:32:05;17.20;77.60
17495;DHT22;8864;51.970;4.614;2023-04-01T11:34:48;17.20;77.40
17495;DHT22;8864;51.970;4.614;2023-04-01T11:37:31;17.20;77.40
17495;DHT22;8864;51.970;4.614;2023-04-01T11:40:09;17.30;77.30
17495;DHT22;8864;51.970;4.614;2023-04-01T11:42:43;17.30;77.30
17495;DHT22;8864;51.970;4.614;2023-04-01T11:45:24;17.30;77.20
17495;DHT22;8864;51.970;4.614;2023-04-01T11:48:14;17.30;77.10
17495;DHT22;8864;51.970;4.614;2023-04-01T11:50:58;17.30;77.10
17495;DHT22;8864;51.970;4.614;2023-04-01T11:53:36;17.30;77.10
17495;DHT22;8864;51.970;4.614;2023-04-01T11:56:33;17.30;77.10
17495;DHT22;8864;51.970;4.614;2023-04-01T11:59:19;17.30;77.10
17495;DHT22;8864;51.970;4.614;2023-04-01T12:01:59;17.30;77.00
17495;DHT22;8864;51.970;4.614;2023-04-01T12:04:48;17.30;77.10
17495;DHT22;8864;51.970;4.614;2023-04-01T12:07:26;17.40;77.10
17495;DHT22;8864;51.970;4.614;2023-04-01T12:10:01;17.40;77.10
17495;DHT22;8864;51.970;4.614;2023-04-01T12:12:35;17.40;77.10
17495;DHT22;8864;51.970;4.614;2023-04-01T12:15:17;17.40;77.10
17495;DHT22;8864;51.970;4.614;2023-04-01T12:17:50;17.30;77.10
17495;DHT22;8864;51.970;4.614;2023-04-01T12:20:41;17.40;77.60
17495;DHT22;8864;51.970;4.614;2023-04-01T12:23:21;17.40;77.30
17495;DHT22;8864;51.970;4.614;2023-04-01T12:26:13;17.40;77.30
17495;DHT22;8864;51.970;4.614;2023-04-01T12:28:57;17.40;77.30
17495;DHT22;8864;51.970;4.614;2023-04-01T12:31:34;17.30;77.20
17495;DHT22;8864;51.970;4.614;2023-04-01T12:34:53;17.40;77.30
17495;DHT22;8864;51.970;4.614;2023-04-01T12:37:30;17.40;77.30
17495;DHT22;8864;51.970;4.614;2023-04-01T12:40:37;17.40;77.30
17495;DHT22;8864;51.970;4.614;2023-04-01T12:43:21;17.40;77.30
17495;DHT22;8864;51.970;4.614;2023-04-01T12:45:57;17.50;77.60
17495;DHT22;8864;51.970;4.614;2023-04-01T12:48:47;17.40;77.50
17495;DHT22;8864;51.970;4.614;2023-04-01T12:51:37;17.40;77.40
17495;DHT22;8864;51.970;4.614;2023-04-01T12:57:06;17.60;78.20
17495;DHT22;8864;51.970;4.614;2023-04-01T12:59:50;17.70;77.60
17495;DHT22;8864;51.970;4.614;2023-04-01T13:02:30;17.70;79.10
17495;DHT22;8864;51.970;4.614;2023-04-01T13:05:29;17.70;78.50
17495;DHT22;8864;51.970;4.614;2023-04-01T13:08:07;17.60;79.60
17495;DHT22;8864;51.970;4.614;2023-04-01T13:10:52;17.60;78.50
17495;DHT22;8864;51.970;4.614;2023-04-01T13:13:41;17.60;78.20
17495;DHT22;8864;51.970;4.614;2023-04-01T13:16:16;17.60;78.00
17495;DHT22;8864;51.970;4.614;2023-04-01T13:18:56;17.60;78.00
17495;DHT22;8864;51.970;4.614;2023-04-01T13:21:34;17.60;77.90
17495;DHT22;8864;51.970;4.614;2023-04-01T13:24:09;17.60;77.70
17495;DHT22;8864;51.970;4.614;2023-04-01T13:26:45;17.60;77.70
17495;DHT22;8864;51.970;4.614;2023-04-01T13:29:20;17.60;77.60
17495;DHT22;8864;51.970;4.614;2023-04-01T13:32:01;17.60;77.60
17495;DHT22;8864;51.970;4.614;2023-04-01T13:34:39;17.60;77.50
17495;DHT22;8864;51.970;4.614;2023-04-01T13:37:29;17.50;77.40
17495;DHT22;8864;51.970;4.614;2023-04-01T13:40:21;17.60;77.40
17495;DHT22;8864;51.970;4.614;2023-04-01T13:42:55;17.60;77.40
17495;DHT22;8864;51.970;4.614;2023-04-01T13:45:25;17.60;77.30
17495;DHT22;8864;51.970;4.614;2023-04-01T13:48:26;17.60;77.30
17495;DHT22;8864;51.970;4.614;2023-04-01T13:51:28;17.60;77.30
17495;DHT22;8864;51.970;4.614;2023-04-01T13:54:12;17.60;77.30
17495;DHT22;8864;51.970;4.614;2023-04-01T13:56:56;17.60;77.30
17495;DHT22;8864;51.970;4.614;2023-04-01T13:59:50;17.50;77.30
17495;DHT22;8864;51.970;4.614;2023-04-01T14:05:44;17.50;77.10
17495;DHT22;8864;51.970;4.614;2023-04-01T14:08:26;17.50;77.20
17495;DHT22;8864;51.970;4.614;2023-04-01T14:11:09;17.60;77.30
17495;DHT22;8864;51.970;4.614;2023-04-01T14:13:43;17.50;77.10
17495;DHT22;8864;51.970;4.614;2023-04-01T14:16:33;17.60;77.10
17495;DHT22;8864;51.970;4.614;2023-04-01T14:19:18;17.50;77.00
17495;DHT22;8864;51.970;4.614;2023-04-01T14:21:55;17.60;77.10
17495;DHT22;8864;51.970;4.614;2023-04-01T14:24:51;17.60;77.10
17495;DHT22;8864;51.970;4.614;2023-04-01T14:27:40;17.50;77.10
17495;DHT22;8864;51.970;4.614;2023-04-01T14:30:29;17.50;77.60
17495;DHT22;8864;51.970;4.614;2023-04-01T14:33:05;17.50;78.00
17495;DHT22;8864;51.970;4.614;2023-04-01T14:35:45;17.60;78.00
17495;DHT22;8864;51.970;4.614;2023-04-01T14:38:28;17.60;78.00
17495;DHT22;8864;51.970;4.614;2023-04-01T14:41:16;17.60;78.60
17495;DHT22;8864;51.970;4.614;2023-04-01T14:44:11;17.60;79.40
17495;DHT22;8864;51.970;4.614;2023-04-01T14:50:03;17.70;80.90
17495;DHT22;8864;51.970;4.614;2023-04-01T14:52:33;17.70;81.60
17495;DHT22;8864;51.970;4.614;2023-04-01T14:55:18;17.70;82.40
17495;DHT22;8864;51.970;4.614;2023-04-01T14:58:09;17.70;82.50
17495;DHT22;8864;51.970;4.614;2023-04-01T15:00:48;17.70;82.80
17495;DHT22;8864;51.970;4.614;2023-04-01T15:03:21;17.70;83.00
17495;DHT22;8864;51.970;4.614;2023-04-01T15:05:53;17.70;82.90
17495;DHT22;8864;51.970;4.614;2023-04-01T15:08:23;17.80;83.30
17495;DHT22;8864;51.970;4.614;2023-04-01T15:11:18;17.90;83.50
17495;DHT22;8864;51.970;4.614;2023-04-01T15:13:59;17.80;83.60
17495;DHT22;8864;51.970;4.614;2023-04-01T15:16:36;17.80;82.60
17495;DHT22;8864;51.970;4.614;2023-04-01T15:19:14;17.70;82.20
17495;DHT22;8864;51.970;4.614;2023-04-01T15:22:04;17.70;82.10
17495;DHT22;8864;51.970;4.614;2023-04-01T15:24:42;17.70;81.80
17495;DHT22;8864;51.970;4.614;2023-04-01T15:27:21;17.70;81.70
17495;DHT22;8864;51.970;4.614;2023-04-01T15:30:14;17.70;81.60
17495;DHT22;8864;51.970;4.614;2023-04-01T15:32:55;17.70;81.40
17495;DHT22;8864;51.970;4.614;2023-04-01T15:35:34;17.70;81.30
17495;DHT22;8864;51.970;4.614;2023-04-01T15:38:08;17.70;81.40
17495;DHT22;8864;51.970;4.614;2023-04-01T15:40:44;17.70;81.30
17495;DHT22;8864;51.970;4.614;2023-04-01T15:43:27;17.70;81.30
17495;DHT22;8864;51.970;4.614;2023-04-01T15:46:12;17.60;81.10
17495;DHT22;8864;51.970;4.614;2023-04-01T15:48:55;17.60;81.30
17495;DHT22;8864;51.970;4.614;2023-04-01T15:51:48;17.50;82.00
17495;DHT22;8864;51.970;4.614;2023-04-01T15:54:31;17.50;81.30
17495;DHT22;8864;51.970;4.614;2023-04-01T15:57:28;17.60;81.50
17495;DHT22;8864;51.970;4.614;2023-04-01T16:00:19;17.50;81.50
17495;DHT22;8864;51.970;4.614;2023-04-01T16:02:51;17.50;81.60
17495;DHT22;8864;51.970;4.614;2023-04-01T16:05:37;17.50;81.60
17495;DHT22;8864;51.970;4.614;2023-04-01T16:08:32;17.50;81.70
17495;DHT22;8864;51.970;4.614;2023-04-01T16:11:12;17.50;81.70
17495;DHT22;8864;51.970;4.614;2023-04-01T16:13:52;17.50;81.70
17495;DHT22;8864;51.970;4.614;2023-04-01T16:16:36;17.50;81.70
17495;DHT22;8864;51.970;4.614;2023-04-01T16:19:32;17.50;81.70
17495;DHT22;8864;51.970;4.614;2023-04-01T16:22:06;17.40;82.00
17495;DHT22;8864;51.970;4.614;2023-04-01T16:24:37;17.40;82.00
17495;DHT22;8864;51.970;4.614;2023-04-01T16:27:11;17.40;81.90
17495;DHT22;8864;51.970;4.614;2023-04-01T16:29:45;17.40;82.00
17495;DHT22;8864;51.970;4.614;2023-04-01T16:32:28;17.40;82.20
17495;DHT22;8864;51.970;4.614;2023-04-01T16:35:12;17.40;82.20
17495;DHT22;8864;51.970;4.614;2023-04-01T16:37:47;17.40;82.30
17495;DHT22;8864;51.970;4.614;2023-04-01T16:40:24;17.30;82.50
17495;DHT22;8864;51.970;4.614;2023-04-01T16:42:53;17.40;82.60
17495;DHT22;8864;51.970;4.614;2023-04-01T16:45:33;17.40;82.60
17495;DHT22;8864;51.970;4.614;2023-04-01T16:48:09;17.40;82.70
17495;DHT22;8864;51.970;4.614;2023-04-01T16:50:46;17.30;82.70
17495;DHT22;8864;51.970;4.614;2023-04-01T16:53:25;17.40;82.80
17495;DHT22;8864;51.970;4.614;2023-04-01T16:56:04;17.30;82.70
17495;DHT22;8864;51.970;4.614;2023-04-01T16:58:36;17.30;82.90
17495;DHT22;8864;51.970;4.614;2023-04-01T17:01:07;17.30;83.00
17495;DHT22;8864;51.970;4.614;2023-04-01T17:03:39;17.30;83.10
17495;DHT22;8864;51.970;4.614;2023-04-01T17:06:17;17.30;83.10
17495;DHT22;8864;51.970;4.614;2023-04-01T17:09:29;17.20;83.20
17495;DHT22;8864;51.970;4.614;2023-04-01T17:12:05;17.30;83.40
17495;DHT22;8864;51.970;4.614;2023-04-01T17:14:44;17.30;83.40
17495;DHT22;8864;51.970;4.614;2023-04-01T17:17:38;17.30;83.40
17495;DHT22;8864;51.970;4.614;2023-04-01T17:20:28;17.30;83.50
17495;DHT22;8864;51.970;4.614;2023-04-01T17:23:01;17.20;83.40
17495;DHT22;8864;51.970;4.614;2023-04-01T17:25:41;17.30;83.60
17495;DHT22;8864;51.970;4.614;2023-04-01T17:28:27;17.20;83.60
17495;DHT22;8864;51.970;4.614;2023-04-01T17:31:05;17.30;83.60
17495;DHT22;8864;51.970;4.614;2023-04-01T17:34:03;17.30;83.60
17495;DHT22;8864;51.970;4.614;2023-04-01T17:36:51;17.20;83.70
17495;DHT22;8864;51.970;4.614;2023-04-01T17:39:36;17.30;83.70